Time;durP1;ratioP1;P1;durP2;ratioP2;P2;SDS_P1;SDS_P2;PMS_P1;PMS_P2;Temp;Humidity;BMP_temperature;BMP_pressure;BME280_temperature;BME280_humidity;BME280_pressure;Samples;Min_cycle;Max_cycle;Signal;HPM_P1;HPM_P2
2023/08/08 00:02:05;;;;;;;1.23;1.00;;;19.20;66.60;;;;;;5068552;28;20189;-79
2023/08/08 00:04:33;;;;;;;1.00;0.77;;;19.10;67.30;;;;;;5073385;28;20213;-79
2023/08/08 00:07:00;;;;;;;1.60;1.40;;;19.00;67.80;;;;;;5068263;28;20204;-80
2023/08/08 00:09:35;;;;;;;2.13;1.07;;;19.00;68.60;;;;;;5057273;28;20212;-79
2023/08/08 00:12:03;;;;;;;4.73;1.43;;;19.00;69.30;;;;;;5053084;28;20311;-80
2023/08/08 00:14:30;;;;;;;2.27;0.97;;;19.00;69.90;;;;;;5058435;28;20250;-79
2023/08/08 00:17:03;;;;;;;1.63;1.03;;;19.00;70.20;;;;;;5077433;28;20208;-79
2023/08/08 00:19:31;;;;;;;2.60;1.00;;;18.90;70.80;;;;;;5061810;28;20210;-78
2023/08/08 00:21:58;;;;;;;2.83;0.90;;;18.90;71.50;;;;;;5071833;28;20199;-80
2023/08/08 00:24:25;;;;;;;1.17;0.90;;;18.90;72.10;;;;;;5054495;28;20269;-79
2023/08/08 00:26:53;;;;;;;3.73;0.97;;;18.90;72.40;;;;;;5064611;28;20212;-79
2023/08/08 00:29:20;;;;;;;1.17;1.07;;;18.80;72.40;;;;;;5072674;28;20227;-79
2023/08/08 00:31:48;;;;;;;2.10;0.80;;;18.80;72.40;;;;;;5071586;28;20575;-80
2023/08/08 00:34:15;;;;;;;1.00;0.80;;;18.70;72.30;;;;;;5068922;28;20535;-79
2023/08/08 00:36:43;;;;;;;3.23;1.03;;;18.70;72.90;;;;;;5050244;28;20204;-79
2023/08/08 00:39:10;;;;;;;1.00;0.90;;;18.60;73.00;;;;;;5072921;28;20213;-79
2023/08/08 00:41:40;;;;;;;1.10;1.00;;;18.60;72.90;;;;;;5054986;28;20199;-80
2023/08/08 00:44:11;;;;;;;0.70;0.70;;;18.70;73.20;;;;;;5072280;28;20203;-80
2023/08/08 00:46:39;;;;;;;1.63;0.97;;;18.60;72.70;;;;;;5048345;28;20245;-80
2023/08/08 00:49:08;;;;;;;4.23;1.10;;;18.60;72.50;;;;;;5056520;28;20206;-79
2023/08/08 00:51:36;;;;;;;5.03;1.17;;;18.50;72.60;;;;;;5054481;28;20201;-79
2023/08/08 00:54:04;;;;;;;2.17;1.00;;;18.50;72.90;;;;;;5057673;28;20223;-80
2023/08/08 00:56:32;;;;;;;2.40;1.03;;;18.50;73.20;;;;;;5049975;28;20618;-79
2023/08/08 00:58:59;;;;;;;1.87;0.97;;;18.40;73.30;;;;;;5074962;28;20221;-80
2023/08/08 01:01:26;;;;;;;1.50;1.00;;;18.40;73.70;;;;;;5058202;28;20260;-79
2023/08/08 01:03:54;;;;;;;3.97;1.10;;;18.40;74.10;;;;;;5073882;28;20204;-79
2023/08/08 01:07:00;;;;;;;2.90;0.90;;;18.40;74.20;;;;;;5073028;28;20595;-79
2023/08/08 01:09:32;;;;;;;1.60;1.03;;;18.40;73.90;;;;;;5060692;28;21614;-80
2023/08/08 01:12:01;;;;;;;1.80;1.10;;;18.30;74.00;;;;;;5053223;28;20254;-79
2023/08/08 01:14:32;;;;;;;2.10;1.23;;;18.30;74.60;;;;;;5053524;28;20231;-79
2023/08/08 01:17:00;;;;;;;3.17;1.43;;;18.30;75.10;;;;;;5050302;28;20262;-79
2023/08/08 01:19:30;;;;;;;1.10;1.00;;;18.20;75.30;;;;;;5070382;28;20216;-79
2023/08/08 01:22:04;;;;;;;2.43;0.80;;;18.10;75.80;;;;;;5070163;28;20274;-79
2023/08/08 01:24:37;;;;;;;3.63;1.10;;;18.10;76.40;;;;;;5066121;28;20591;-79
2023/08/08 01:27:06;;;;;;;1.63;1.00;;;18.10;76.70;;;;;;5056073;28;20204;-79
2023/08/08 01:29:37;;;;;;;0.90;0.70;;;18.10;76.80;;;;;;5069400;28;20214;-80
2023/08/08 01:32:05;;;;;;;1.43;0.90;;;18.00;76.80;;;;;;5056561;28;20199;-79
2023/08/08 01:34:32;;;;;;;4.63;1.10;;;17.90;76.80;;;;;;5066668;28;20737;-79
2023/08/08 01:37:10;;;;;;;0.93;0.83;;;17.90;76.60;;;;;;5072229;28;20203;-79
2023/08/08 01:39:40;;;;;;;2.30;1.50;;;17.90;77.10;;;;;;5083064;28;20203;-79
2023/08/08 01:42:07;;;;;;;3.20;1.13;;;17.80;77.30;;;;;;5064976;28;20233;-79
2023/08/08 01:44:35;;;;;;;1.00;0.90;;;17.80;77.40;;;;;;5070125;28;20231;-79
2023/08/08 01:47:03;;;;;;;1.57;1.13;;;17.80;77.80;;;;;;5047491;28;20300;-80
2023/08/08 01:49:31;;;;;;;3.47;1.23;;;17.70;78.00;;;;;;5051180;28;20262;-79
2023/08/08 01:51:58;;;;;;;1.13;0.97;;;17.70;77.80;;;;;;5067247;28;20210;-79
2023/08/08 01:54:26;;;;;;;2.03;1.30;;;17.70;78.10;;;;;;5049211;28;20629;-79
2023/08/08 01:56:54;;;;;;;1.23;1.13;;;17.60;78.50;;;;;;5051459;28;20246;-79
2023/08/08 01:59:25;;;;;;;2.73;1.40;;;17.70;79.00;;;;;;5064356;28;20245;-78
2023/08/08 02:01:54;;;;;;;2.57;1.40;;;17.70;79.40;;;;;;5059261;28;20213;-79
2023/08/08 02:04:21;;;;;;;1.20;1.10;;;17.70;79.60;;;;;;5062656;28;20241;-79
2023/08/08 02:06:49;;;;;;;2.40;1.30;;;17.70;79.60;;;;;;5053289;28;20199;-79
2023/08/08 02:09:16;;;;;;;2.20;1.00;;;17.80;79.40;;;;;;5052199;28;20215;-79
2023/08/08 02:11:46;;;;;;;1.47;0.90;;;17.70;78.90;;;;;;5051559;28;20209;-79
2023/08/08 02:14:14;;;;;;;4.00;1.00;;;17.70;78.60;;;;;;5064203;28;20223;-79
2023/08/08 02:16:42;;;;;;;2.37;0.87;;;17.70;78.30;;;;;;5061204;28;20582;-79
2023/08/08 02:19:19;;;;;;;1.00;0.80;;;17.70;77.90;;;;;;5056974;28;20659;-79
2023/08/08 02:21:46;;;;;;;2.03;1.43;;;17.70;77.50;;;;;;5065907;28;20653;-79
2023/08/08 02:24:16;;;;;;;1.77;1.00;;;17.70;77.50;;;;;;5055113;28;20220;-79
2023/08/08 02:26:43;;;;;;;1.33;1.03;;;17.70;77.50;;;;;;5067633;28;20615;-79
2023/08/08 02:29:10;;;;;;;2.40;1.17;;;17.70;77.30;;;;;;5069607;28;20597;-79
2023/08/08 02:31:43;;;;;;;1.47;0.90;;;17.70;76.20;;;;;;5070715;28;20204;-79
2023/08/08 02:34:11;;;;;;;2.47;0.93;;;17.70;75.00;;;;;;5073781;28;20200;-79
2023/08/08 02:36:38;;;;;;;1.47;1.00;;;17.80;74.50;;;;;;5061690;28;20317;-80
2023/08/08 02:39:06;;;;;;;4.20;0.97;;;17.70;74.00;;;;;;5055656;28;20209;-79
2023/08/08 02:41:34;;;;;;;1.73;1.20;;;17.80;73.70;;;;;;5050064;28;20217;-80
2023/08/08 02:44:02;;;;;;;2.90;0.90;;;17.80;73.40;;;;;;5058197;28;20207;-79
2023/08/08 02:46:32;;;;;;;3.00;0.87;;;17.80;73.30;;;;;;5059118;28;20215;-79
2023/08/08 02:49:00;;;;;;;1.00;0.90;;;17.80;73.30;;;;;;5076558;28;20258;-79
2023/08/08 02:51:27;;;;;;;4.47;1.13;;;17.80;73.80;;;;;;5059004;28;20532;-79
2023/08/08 02:53:55;;;;;;;5.83;1.23;;;17.80;72.80;;;;;;5053155;28;20215;-80
2023/08/08 02:56:23;;;;;;;3.03;1.20;;;17.80;72.50;;;;;;5066985;28;20236;-78
2023/08/08 02:58:52;;;;;;;1.50;1.00;;;17.80;72.30;;;;;;5062695;28;20243;-79
2023/08/08 03:01:22;;;;;;;1.17;0.80;;;17.70;71.80;;;;;;5055837;28;20204;-78
2023/08/08 03:03:50;;;;;;;4.47;1.10;;;17.70;71.60;;;;;;5058916;28;20319;-79
2023/08/08 03:06:20;;;;;;;4.10;1.03;;;17.70;71.80;;;;;;5070685;28;20237;-79
2023/08/08 03:08:52;;;;;;;4.37;1.23;;;17.60;72.10;;;;;;5059339;28;20212;-81
2023/08/08 03:11:20;;;;;;;4.27;0.90;;;17.60;72.50;;;;;;5084403;28;20257;-79
2023/08/08 03:13:51;;;;;;;2.23;0.97;;;17.60;72.80;;;;;;5079341;28;20554;-79
2023/08/08 03:16:18;;;;;;;1.50;1.17;;;17.60;72.50;;;;;;5048538;28;20220;-79
2023/08/08 03:18:49;;;;;;;2.13;1.17;;;17.60;71.90;;;;;;5058677;28;20199;-79
2023/08/08 03:21:17;;;;;;;3.37;1.00;;;17.60;71.80;;;;;;5059574;28;20209;-79
2023/08/08 03:23:47;;;;;;;0.60;0.60;;;17.50;72.00;;;;;;5074642;28;20199;-79
2023/08/08 03:26:15;;;;;;;2.67;1.53;;;17.50;72.40;;;;;;5051131;28;20208;-81
2023/08/08 03:28:50;;;;;;;0.67;0.63;;;17.50;72.60;;;;;;5054305;28;20207;-79
2023/08/08 03:31:20;;;;;;;0.87;0.80;;;17.50;72.80;;;;;;5044990;28;20222;-79
2023/08/08 03:33:48;;;;;;;1.60;0.90;;;17.50;72.60;;;;;;5060940;28;20215;-79
2023/08/08 03:36:15;;;;;;;2.23;0.83;;;17.40;71.90;;;;;;5051829;28;20669;-79
2023/08/08 03:38:47;;;;;;;1.47;0.97;;;17.40;71.60;;;;;;5053559;28;20198;-79
2023/08/08 03:41:17;;;;;;;1.60;1.10;;;17.30;71.30;;;;;;5068980;28;20222;-79
2023/08/08 03:43:45;;;;;;;3.00;0.90;;;17.30;71.80;;;;;;5053375;28;20212;-79
2023/08/08 03:46:12;;;;;;;1.60;1.20;;;17.30;72.40;;;;;;5064380;28;20217;-79
2023/08/08 03:48:41;;;;;;;1.87;1.07;;;17.30;72.80;;;;;;5064835;28;20206;-78
2023/08/08 03:51:12;;;;;;;2.43;0.97;;;17.20;72.60;;;;;;5062141;28;20224;-79
2023/08/08 03:53:39;;;;;;;2.00;1.10;;;17.10;72.30;;;;;;5062909;28;20328;-79
2023/08/08 03:56:07;;;;;;;1.73;0.97;;;17.10;72.50;;;;;;5063863;28;20250;-80
2023/08/08 03:58:37;;;;;;;2.30;1.00;;;17.00;72.50;;;;;;5065282;28;20920;-79
2023/08/08 04:01:05;;;;;;;3.87;1.13;;;16.90;72.50;;;;;;5061773;28;20240;-79
2023/08/08 04:03:33;;;;;;;1.33;0.90;;;16.90;72.40;;;;;;5049069;28;20203;-79
2023/08/08 04:06:00;;;;;;;1.20;0.90;;;16.80;72.30;;;;;;5074794;28;20202;-79
2023/08/08 04:08:28;;;;;;;1.50;1.10;;;16.80;72.20;;;;;;5051350;28;20222;-79
2023/08/08 04:10:55;;;;;;;1.23;0.87;;;16.80;72.20;;;;;;5070697;28;20216;-79
2023/08/08 04:13:23;;;;;;;1.13;0.70;;;16.80;72.50;;;;;;5073859;28;20283;-79
2023/08/08 04:15:53;;;;;;;1.00;0.90;;;16.80;72.80;;;;;;5068468;28;20309;-79
2023/08/08 04:18:20;;;;;;;5.17;1.30;;;16.80;73.30;;;;;;5075469;28;20538;-79
2023/08/08 04:20:48;;;;;;;1.30;0.77;;;16.80;73.60;;;;;;5055566;28;20222;-79
2023/08/08 04:23:15;;;;;;;1.77;0.83;;;16.80;74.20;;;;;;5079332;28;20200;-79
2023/08/08 04:25:43;;;;;;;2.77;1.00;;;16.80;74.30;;;;;;5052130;28;20205;-79
2023/08/08 04:28:10;;;;;;;0.87;0.77;;;16.80;74.10;;;;;;5061621;28;20206;-79
2023/08/08 04:30:38;;;;;;;1.67;1.00;;;16.80;73.60;;;;;;5049545;28;20657;-78
2023/08/08 04:33:06;;;;;;;2.60;1.10;;;16.80;73.50;;;;;;5070669;28;20212;-79
2023/08/08 04:35:33;;;;;;;1.27;1.10;;;16.80;73.80;;;;;;5060581;28;20271;-79
2023/08/08 04:38:01;;;;;;;1.10;1.00;;;16.80;74.10;;;;;;5059066;28;20652;-79
2023/08/08 04:40:28;;;;;;;5.90;1.10;;;16.70;74.20;;;;;;5047220;28;20221;-79
2023/08/08 04:42:56;;;;;;;5.80;1.50;;;16.70;74.20;;;;;;5061934;28;20296;-79
2023/08/08 04:45:24;;;;;;;1.77;0.80;;;16.80;74.70;;;;;;5059863;28;20265;-78
2023/08/08 04:47:52;;;;;;;3.20;1.10;;;16.70;75.00;;;;;;5053472;28;20595;-78
2023/08/08 04:50:21;;;;;;;1.50;0.97;;;16.70;75.70;;;;;;5055068;28;20270;-78
2023/08/08 04:52:49;;;;;;;2.43;0.93;;;16.60;76.00;;;;;;5062413;28;20232;-78
2023/08/08 04:55:17;;;;;;;4.90;1.37;;;16.60;76.80;;;;;;5069363;28;20202;-78
2023/08/08 04:57:44;;;;;;;1.83;1.10;;;16.50;77.30;;;;;;5049751;28;20253;-78
2023/08/08 05:00:15;;;;;;;2.30;0.93;;;16.50;77.50;;;;;;5062118;28;20704;-77
2023/08/08 05:02:42;;;;;;;1.07;0.97;;;16.50;77.70;;;;;;5082581;28;20617;-78
2023/08/08 05:05:10;;;;;;;1.40;1.03;;;16.50;78.40;;;;;;5067166;28;20204;-78
2023/08/08 05:07:38;;;;;;;2.93;1.10;;;16.60;79.00;;;;;;5074167;28;20560;-78
2023/08/08 05:10:06;;;;;;;3.43;0.80;;;16.60;78.80;;;;;;5083682;28;20296;-80
2023/08/08 05:12:33;;;;;;;3.87;1.50;;;16.60;79.10;;;;;;5070541;28;20240;-79
2023/08/08 05:15:00;;;;;;;1.73;0.90;;;16.70;79.50;;;;;;5054110;28;20197;-78
2023/08/08 05:17:31;;;;;;;2.57;1.20;;;16.70;79.70;;;;;;5058098;28;20223;-78
2023/08/08 05:19:58;;;;;;;1.57;1.10;;;16.80;79.90;;;;;;5065313;28;20207;-78
2023/08/08 05:22:26;;;;;;;4.00;1.17;;;16.80;80.10;;;;;;5074337;28;20206;-78
2023/08/08 05:24:53;;;;;;;5.90;1.30;;;16.90;80.60;;;;;;5057051;28;20218;-78
2023/08/08 05:27:21;;;;;;;1.30;1.00;;;17.00;80.90;;;;;;5044713;28;20215;-78
2023/08/08 05:29:50;;;;;;;4.40;1.10;;;17.10;80.70;;;;;;5046543;28;20212;-78
2023/08/08 05:32:17;;;;;;;2.13;1.10;;;17.20;80.40;;;;;;5061388;28;20212;-78
2023/08/08 05:34:45;;;;;;;1.83;0.90;;;17.40;80.30;;;;;;5063022;28;20204;-78
2023/08/08 05:37:12;;;;;;;0.80;0.70;;;17.50;80.10;;;;;;5061982;28;20659;-78
2023/08/08 05:39:44;;;;;;;0.77;0.77;;;17.60;79.80;;;;;;5053583;28;20223;-78
2023/08/08 05:42:11;;;;;;;4.33;1.03;;;17.70;79.40;;;;;;5068474;28;20281;-77
2023/08/08 05:44:44;;;;;;;1.03;0.90;;;17.90;79.10;;;;;;5061039;28;20215;-78
2023/08/08 05:47:11;;;;;;;1.67;0.80;;;18.00;78.60;;;;;;5068371;28;20287;-79
2023/08/08 05:49:42;;;;;;;2.00;1.37;;;18.20;77.70;;;;;;5071332;28;20964;-79
2023/08/08 05:52:10;;;;;;;1.10;1.00;;;18.30;76.70;;;;;;5068004;28;20872;-78
2023/08/08 05:54:38;;;;;;;1.00;0.90;;;18.50;76.10;;;;;;5057796;28;20267;-78
2023/08/08 05:57:06;;;;;;;3.03;1.30;;;18.60;75.40;;;;;;5081107;28;20243;-78
2023/08/08 05:59:34;;;;;;;3.73;1.23;;;18.80;74.20;;;;;;5049665;28;20203;-78
2023/08/08 06:02:01;;;;;;;2.13;1.40;;;18.90;73.10;;;;;;5060015;28;20208;-78
2023/08/08 06:04:28;;;;;;;2.33;1.20;;;19.10;72.40;;;;;;5084571;28;20209;-78
2023/08/08 06:06:56;;;;;;;2.27;0.80;;;19.30;71.60;;;;;;5078571;28;20205;-78
2023/08/08 06:09:24;;;;;;;8.47;1.93;;;19.50;71.10;;;;;;5068254;28;20799;-79
2023/08/08 06:11:52;;;;;;;7.43;1.30;;;19.70;70.80;;;;;;5069496;28;20229;-78
2023/08/08 06:14:20;;;;;;;5.10;1.10;;;19.90;70.00;;;;;;5076858;28;20202;-78
2023/08/08 06:16:48;;;;;;;2.50;1.00;;;20.10;69.20;;;;;;5053025;28;20225;-78
2023/08/08 06:19:21;;;;;;;2.10;1.33;;;20.20;68.70;;;;;;5056730;28;20543;-78
2023/08/08 06:21:52;;;;;;;1.77;1.23;;;20.30;68.50;;;;;;5056502;28;20577;-79
2023/08/08 06:24:20;;;;;;;1.83;1.27;;;20.40;68.50;;;;;;5068425;28;20199;-79
2023/08/08 06:26:47;;;;;;;1.93;1.40;;;20.50;68.10;;;;;;5078790;28;20209;-80
2023/08/08 06:29:15;;;;;;;1.60;1.50;;;20.70;67.40;;;;;;5065227;28;20547;-79
2023/08/08 06:31:42;;;;;;;1.90;1.10;;;20.90;66.00;;;;;;5074578;28;20209;-78
2023/08/08 06:34:12;;;;;;;2.00;1.60;;;21.00;65.50;;;;;;5074234;28;20197;-79
2023/08/08 06:36:42;;;;;;;1.83;1.50;;;21.10;65.40;;;;;;5072018;28;20220;-79
2023/08/08 06:39:11;;;;;;;2.00;1.67;;;21.20;65.20;;;;;;5069032;28;20193;-79
2023/08/08 06:41:38;;;;;;;2.90;1.90;;;21.20;65.20;;;;;;5074667;28;20205;-80
2023/08/08 06:44:07;;;;;;;3.17;1.70;;;21.30;65.80;;;;;;5069839;28;20209;-79
2023/08/08 06:46:35;;;;;;;2.97;1.70;;;21.30;65.30;;;;;;5062621;28;20546;-79
2023/08/08 06:49:02;;;;;;;3.17;2.13;;;21.20;65.10;;;;;;5060326;28;20297;-79
2023/08/08 06:51:30;;;;;;;5.70;1.90;;;21.20;65.20;;;;;;5064790;28;20553;-79
2023/08/08 06:53:57;;;;;;;4.50;1.73;;;21.20;65.10;;;;;;5048228;28;20202;-79
2023/08/08 06:56:28;;;;;;;3.07;1.67;;;21.20;65.40;;;;;;5064345;28;20233;-79
2023/08/08 06:58:56;;;;;;;2.07;1.80;;;21.20;65.90;;;;;;5076297;28;20211;-80
2023/08/08 07:01:23;;;;;;;2.00;1.63;;;21.30;65.60;;;;;;5076789;28;20612;-80
2023/08/08 07:04:00;;;;;;;4.03;2.10;;;21.40;63.60;;;;;;5088249;28;20212;-78
2023/08/08 07:06:28;;;;;;;2.63;1.70;;;21.50;63.70;;;;;;5076934;28;20237;-78
2023/08/08 07:08:58;;;;;;;3.57;1.87;;;21.80;63.70;;;;;;5060140;28;20737;-80
2023/08/08 07:11:26;;;;;;;2.20;1.83;;;22.00;63.20;;;;;;5069812;28;20648;-79
2023/08/08 07:13:57;;;;;;;4.50;1.97;;;22.20;62.50;;;;;;5058404;28;20717;-79
2023/08/08 07:16:27;;;;;;;6.70;2.10;;;22.40;62.00;;;;;;5054824;28;20222;-80
2023/08/08 07:18:58;;;;;;;4.27;1.80;;;22.50;62.00;;;;;;5048643;28;20255;-79
2023/08/08 07:21:29;;;;;;;4.37;2.03;;;22.60;61.50;;;;;;5058639;28;20235;-79
2023/08/08 07:23:57;;;;;;;3.70;3.17;;;22.60;61.70;;;;;;5074583;28;20201;-78
2023/08/08 07:26:25;;;;;;;7.93;5.63;;;22.70;61.60;;;;;;5066163;28;20284;-79
2023/08/08 07:28:53;;;;;;;4.83;3.97;;;22.80;61.10;;;;;;5060624;28;20213;-78
2023/08/08 07:31:20;;;;;;;6.17;3.57;;;23.00;60.80;;;;;;5077956;28;20212;-79
2023/08/08 07:33:48;;;;;;;5.30;3.70;;;23.20;60.50;;;;;;5059049;28;20209;-78
2023/08/08 07:36:15;;;;;;;10.60;6.60;;;23.40;60.00;;;;;;5078562;28;20308;-78
2023/08/08 07:38:46;;;;;;;7.83;5.07;;;23.60;59.50;;;;;;5076518;28;20207;-79
2023/08/08 07:41:17;;;;;;;6.53;4.27;;;23.80;58.20;;;;;;5059399;28;20205;-80
2023/08/08 07:43:45;;;;;;;5.67;4.17;;;24.00;57.80;;;;;;5064676;28;20201;-79
2023/08/08 07:46:17;;;;;;;4.97;4.30;;;24.10;58.10;;;;;;5049721;28;20201;-79
2023/08/08 07:48:45;;;;;;;5.53;4.50;;;24.40;58.10;;;;;;5047765;28;20213;-79
2023/08/08 07:51:16;;;;;;;6.17;3.90;;;24.60;57.30;;;;;;5075690;28;20304;-79
2023/08/08 07:53:46;;;;;;;7.50;4.30;;;24.80;57.20;;;;;;5072198;28;20193;-78
2023/08/08 07:56:14;;;;;;;5.23;4.03;;;25.10;56.60;;;;;;5050246;28;20619;-79
2023/08/08 07:58:50;;;;;;;5.73;4.43;;;25.30;55.90;;;;;;5070230;28;20275;-79
2023/08/08 08:01:19;;;;;;;7.30;3.70;;;25.60;54.60;;;;;;5055434;28;20212;-79
2023/08/08 08:03:46;;;;;;;4.40;3.37;;;25.70;54.10;;;;;;5065168;28;20208;-78
2023/08/08 08:06:17;;;;;;;9.07;3.87;;;25.90;54.10;;;;;;5071131;28;20200;-79
2023/08/08 08:08:44;;;;;;;5.47;3.63;;;25.90;54.30;;;;;;5075420;28;20206;-78
2023/08/08 08:11:16;;;;;;;5.93;2.97;;;26.10;54.30;;;;;;5069149;28;20522;-78
2023/08/08 08:13:43;;;;;;;5.67;3.33;;;26.10;53.70;;;;;;5068436;28;20263;-79
2023/08/08 08:16:11;;;;;;;4.87;3.93;;;26.10;52.60;;;;;;5057952;28;20212;-79
2023/08/08 08:18:38;;;;;;;5.33;4.63;;;26.00;52.50;;;;;;5070144;28;20204;-79
2023/08/08 08:21:05;;;;;;;6.27;3.57;;;25.90;52.00;;;;;;5061914;28;20234;-80
2023/08/08 08:23:33;;;;;;;4.80;2.90;;;25.80;52.30;;;;;;5067705;28;20226;-80
2023/08/08 08:26:00;;;;;;;4.00;3.20;;;25.80;53.20;;;;;;5063088;28;20206;-80
2023/08/08 08:28:27;;;;;;;6.33;3.60;;;25.90;54.10;;;;;;5069520;28;20208;-79
2023/08/08 08:30:54;;;;;;;7.93;3.63;;;26.00;54.20;;;;;;5068116;28;20607;-80
2023/08/08 08:33:22;;;;;;;8.13;4.10;;;26.20;53.90;;;;;;5057990;28;20228;-80
2023/08/08 08:35:49;;;;;;;7.77;4.47;;;26.30;53.50;;;;;;5075299;28;20633;-79
2023/08/08 08:38:17;;;;;;;3.67;3.30;;;26.40;52.80;;;;;;5077086;28;20464;-79
2023/08/08 08:40:49;;;;;;;6.53;4.33;;;26.50;53.00;;;;;;5075964;28;20614;-79
2023/08/08 08:43:16;;;;;;;4.53;3.53;;;26.70;51.80;;;;;;5059928;28;20247;-80
2023/08/08 08:45:52;;;;;;;4.53;3.73;;;26.80;52.40;;;;;;5088566;28;20207;-79
2023/08/08 08:48:21;;;;;;;6.13;3.73;;;26.80;51.60;;;;;;5061158;28;20201;-79
2023/08/08 08:50:51;;;;;;;5.17;4.33;;;26.90;51.90;;;;;;5065124;28;20835;-79
2023/08/08 08:53:19;;;;;;;5.30;3.77;;;27.00;51.90;;;;;;5077435;28;20291;-79
2023/08/08 08:55:47;;;;;;;6.90;4.13;;;27.20;51.80;;;;;;5065093;28;20336;-79
2023/08/08 08:58:18;;;;;;;6.53;4.40;;;27.30;52.20;;;;;;5055246;28;20634;-79
2023/08/08 09:00:48;;;;;;;6.13;4.17;;;27.50;51.70;;;;;;5062230;28;20202;-80
2023/08/08 09:03:15;;;;;;;7.37;4.53;;;27.60;51.40;;;;;;5066315;28;20213;-80
2023/08/08 09:05:48;;;;;;;6.37;4.47;;;27.60;50.20;;;;;;5077613;28;20707;-81
2023/08/08 09:08:15;;;;;;;5.83;4.00;;;27.70;50.00;;;;;;5068917;28;20207;-80
2023/08/08 09:10:43;;;;;;;8.37;3.93;;;27.90;50.50;;;;;;5052036;28;20241;-79
2023/08/08 09:13:10;;;;;;;8.23;4.83;;;28.00;51.10;;;;;;5080877;28;20224;-81
2023/08/08 09:15:37;;;;;;;6.60;4.20;;;28.20;49.60;;;;;;5080989;28;20287;-82
2023/08/08 09:18:07;;;;;;;9.17;4.40;;;28.30;49.20;;;;;;5076892;28;20601;-82
2023/08/08 09:20:34;;;;;;;8.17;5.03;;;28.40;48.90;;;;;;5076515;28;20210;-82
2023/08/08 09:23:02;;;;;;;9.17;4.97;;;28.50;48.50;;;;;;5062263;28;20206;-82
2023/08/08 09:25:30;;;;;;;5.97;4.40;;;28.70;47.60;;;;;;5072328;28;20692;-82
2023/08/08 09:27:58;;;;;;;5.73;3.80;;;28.80;47.10;;;;;;5068769;28;20201;-82
2023/08/08 09:30:26;;;;;;;4.57;3.50;;;29.00;46.70;;;;;;5064071;28;20553;-82
2023/08/08 09:32:53;;;;;;;6.13;4.27;;;29.10;46.20;;;;;;5071616;28;20220;-81
2023/08/08 09:35:23;;;;;;;8.17;3.50;;;29.20;45.20;;;;;;5063017;28;20202;-83
2023/08/08 09:37:54;;;;;;;5.03;3.20;;;29.40;45.10;;;;;;5060933;28;20226;-81
2023/08/08 09:40:23;;;;;;;7.83;3.87;;;29.60;45.30;;;;;;5075183;28;20206;-83
2023/08/08 09:42:53;;;;;;;5.40;2.87;;;29.70;45.00;;;;;;5067476;28;20233;-82
2023/08/08 09:45:22;;;;;;;4.03;3.30;;;29.70;44.10;;;;;;5067202;28;20201;-82
2023/08/08 09:47:53;;;;;;;5.33;2.67;;;29.80;43.20;;;;;;5060188;28;20212;-82
2023/08/08 09:50:21;;;;;;;5.50;3.70;;;29.80;43.00;;;;;;5062684;28;20213;-82
2023/08/08 09:52:50;;;;;;;4.60;3.43;;;29.80;43.00;;;;;;5052004;28;20248;-83
2023/08/08 09:55:19;;;;;;;5.07;3.80;;;29.80;43.40;;;;;;5052800;28;20224;-83
2023/08/08 09:57:48;;;;;;;5.67;3.63;;;29.80;43.50;;;;;;5065360;28;20236;-81
2023/08/08 10:00:20;;;;;;;5.60;4.20;;;29.80;43.70;;;;;;5061828;28;20205;-82
2023/08/08 10:02:50;;;;;;;7.90;3.53;;;29.90;43.30;;;;;;5055241;28;20204;-82
2023/08/08 10:05:18;;;;;;;4.43;3.80;;;30.00;43.20;;;;;;5072527;28;20212;-81
2023/08/08 10:07:47;;;;;;;5.17;3.60;;;30.00;43.40;;;;;;5077458;28;20225;-82
2023/08/08 10:10:15;;;;;;;2.93;2.63;;;30.00;43.90;;;;;;5073365;28;20201;-82
2023/08/08 10:12:46;;;;;;;3.57;2.70;;;30.00;43.40;;;;;;5051829;28;20208;-82
2023/08/08 10:15:13;;;;;;;4.23;3.17;;;30.00;44.20;;;;;;5069840;28;20573;-81
2023/08/08 10:17:42;;;;;;;6.43;3.77;;;30.00;44.70;;;;;;5074550;28;20222;-82
2023/08/08 10:20:11;;;;;;;6.90;3.23;;;30.10;44.50;;;;;;5060018;28;20232;-82
2023/08/08 10:22:44;;;;;;;5.80;3.47;;;30.10;44.50;;;;;;5073698;28;20205;-83
2023/08/08 10:25:43;;;;;;;4.40;3.20;;;30.20;44.90;;;;;;5076253;28;20220;-82
2023/08/08 10:28:14;;;;;;;2.93;2.20;;;30.40;45.20;;;;;;5052846;28;20202;-81
2023/08/08 10:31:01;;;;;;;3.67;2.60;;;30.50;45.20;;;;;;5061681;28;20202;-83
2023/08/08 10:33:41;;;;;;;4.80;2.67;;;30.70;42.60;;;;;;5064816;28;20205;-83
2023/08/08 10:36:09;;;;;;;2.27;1.60;;;30.70;40.60;;;;;;5063428;28;20200;-83
2023/08/08 10:38:42;;;;;;;1.60;1.50;;;30.80;41.50;;;;;;5054404;28;20304;-81
2023/08/08 10:41:18;;;;;;;3.23;1.50;;;30.70;40.30;;;;;;5055681;28;20629;-84
2023/08/08 10:43:54;;;;;;;1.40;1.30;;;30.60;36.70;;;;;;5074647;28;20295;-82
2023/08/08 10:46:29;;;;;;;1.30;1.20;;;30.60;37.50;;;;;;5074583;28;20201;-83
2023/08/08 10:49:02;;;;;;;1.10;1.00;;;30.60;36.40;;;;;;5058479;28;20293;-85
2023/08/08 10:51:39;;;;;;;1.60;1.50;;;30.50;35.80;;;;;;5065748;28;20229;-82
2023/08/08 10:54:19;;;;;;;1.00;1.00;;;30.60;35.80;;;;;;5068678;28;20213;-81
2023/08/08 10:56:53;;;;;;;1.47;1.20;;;30.60;35.90;;;;;;5055417;28;20332;-83
2023/08/08 10:59:36;;;;;;;1.40;1.30;;;30.60;36.10;;;;;;5050967;28;20233;-79
2023/08/08 11:02:04;;;;;;;1.70;1.50;;;30.60;35.00;;;;;;5050700;28;20209;-82
2023/08/08 11:04:37;;;;;;;2.00;1.37;;;30.60;35.80;;;;;;5059040;28;20258;-82
2023/08/08 11:07:10;;;;;;;2.07;1.60;;;30.70;37.00;;;;;;5044892;28;20217;-84
2023/08/08 11:09:38;;;;;;;3.27;1.73;;;30.80;37.10;;;;;;5057800;28;20201;-82
2023/08/08 11:12:12;;;;;;;3.77;1.90;;;30.90;37.60;;;;;;5062820;28;20207;-83
2023/08/08 11:14:43;;;;;;;4.30;1.87;;;30.90;36.80;;;;;;5062507;28;20204;-83
2023/08/08 11:17:11;;;;;;;1.87;1.57;;;30.90;36.50;;;;;;5051241;28;20221;-83
2023/08/08 11:19:43;;;;;;;5.17;1.53;;;30.90;35.60;;;;;;5076345;28;20308;-82
2023/08/08 11:22:12;;;;;;;2.10;1.70;;;30.80;37.00;;;;;;5062858;28;20690;-82
2023/08/08 11:24:41;;;;;;;1.97;1.80;;;31.00;37.30;;;;;;5055771;28;20213;-83
2023/08/08 11:27:12;;;;;;;1.93;1.67;;;30.90;37.20;;;;;;5055345;28;20589;-83
2023/08/08 11:30:00;;;;;;;2.00;1.80;;;31.00;37.20;;;;;;5060895;28;20264;-82
2023/08/08 11:32:28;;;;;;;2.40;1.50;;;31.10;37.50;;;;;;5052295;28;20201;-85
2023/08/08 11:34:55;;;;;;;3.30;1.90;;;31.20;37.00;;;;;;5059840;28;20284;-83
2023/08/08 11:37:26;;;;;;;2.60;1.60;;;31.20;36.70;;;;;;5064775;28;20313;-83
2023/08/08 11:39:54;;;;;;;1.50;1.30;;;31.30;37.50;;;;;;5063914;28;20263;-82
2023/08/08 11:42:21;;;;;;;3.43;1.60;;;31.30;37.30;;;;;;5053865;28;20205;-83
2023/08/08 11:44:50;;;;;;;2.00;1.43;;;31.40;37.20;;;;;;5069026;28;20203;-83
2023/08/08 11:47:17;;;;;;;1.50;1.40;;;31.50;37.10;;;;;;5060776;28;20296;-83
2023/08/08 11:49:45;;;;;;;4.27;1.40;;;31.60;37.20;;;;;;5060451;28;20293;-82
2023/08/08 11:52:25;;;;;;;2.40;1.53;;;31.70;37.30;;;;;;5069315;28;20213;-82
2023/08/08 11:54:55;;;;;;;2.20;1.40;;;31.80;36.40;;;;;;5065852;28;20201;-83
2023/08/08 11:57:25;;;;;;;1.60;1.43;;;31.80;35.70;;;;;;5049020;28;20679;-82
2023/08/08 12:00:02;;;;;;;3.50;1.33;;;31.80;35.00;;;;;;5054574;28;20225;-81
2023/08/08 12:02:40;;;;;;;1.37;1.27;;;31.80;35.60;;;;;;5065688;28;20201;-81
2023/08/08 12:05:16;;;;;;;3.17;1.30;;;31.80;36.20;;;;;;5060950;28;20212;-82
2023/08/08 12:07:45;;;;;;;3.63;1.70;;;31.80;35.70;;;;;;5051317;28;20720;-82
2023/08/08 12:10:26;;;;;;;1.20;1.10;;;31.80;35.30;;;;;;5057667;28;20205;-83
2023/08/08 12:13:00;;;;;;;1.47;1.27;;;31.80;34.90;;;;;;5076062;28;20220;-81
2023/08/08 12:15:37;;;;;;;1.60;1.13;;;31.90;35.00;;;;;;5054866;28;20268;-82
2023/08/08 12:18:05;;;;;;;1.10;1.00;;;31.90;33.90;;;;;;5074820;28;20214;-82
2023/08/08 12:20:35;;;;;;;2.27;1.30;;;31.90;33.80;;;;;;5058455;28;20210;-82
2023/08/08 12:23:02;;;;;;;3.37;1.00;;;31.90;33.90;;;;;;5066214;28;20211;-83
2023/08/08 12:25:30;;;;;;;1.20;1.00;;;31.90;34.90;;;;;;5072426;28;20252;-82
2023/08/08 12:28:02;;;;;;;1.23;1.00;;;31.90;34.50;;;;;;5074204;28;20287;-82
2023/08/08 12:30:32;;;;;;;1.30;1.20;;;31.80;33.80;;;;;;5062901;28;20201;-83
2023/08/08 12:33:09;;;;;;;2.03;1.20;;;31.80;34.20;;;;;;5071639;28;20201;-83
2023/08/08 12:35:49;;;;;;;2.40;1.10;;;31.80;35.00;;;;;;5072853;28;20295;-81
2023/08/08 12:38:21;;;;;;;2.20;0.87;;;31.90;35.10;;;;;;5066469;28;20240;-83
2023/08/08 12:44:35;;;;;;;1.87;1.00;;;31.90;34.10;;;;;;5084908;28;20223;-81
2023/08/08 12:47:03;;;;;;;1.67;0.90;;;31.80;34.80;;;;;;5064971;28;20202;-82
2023/08/08 12:50:32;;;;;;;2.13;1.20;;;31.70;35.00;;;;;;5062704;28;20232;-81
2023/08/08 12:53:25;;;;;;;2.43;1.37;;;31.60;34.60;;;;;;5074520;28;20189;-82
2023/08/08 13:00:21;;;;;;;1.77;1.10;;;31.50;35.00;;;;;;5090603;28;20325;-82
2023/08/08 13:02:51;;;;;;;1.03;1.00;;;31.30;33.30;;;;;;5053784;28;20324;-83
2023/08/08 13:05:19;;;;;;;1.07;0.97;;;31.20;33.50;;;;;;5057934;28;20206;-82
2023/08/08 13:07:47;;;;;;;2.20;1.10;;;31.20;32.70;;;;;;5067896;28;20213;-82
2023/08/08 13:10:14;;;;;;;0.83;0.80;;;31.20;32.70;;;;;;5078584;28;20232;-82